Time;durP1;ratioP1;P1;durP2;ratioP2;P2;SDS_P1;SDS_P2;PMS_P1;PMS_P2;Temp;Humidity;BMP_temperature;BMP_pressure;BME280_temperature;BME280_humidity;BME280_pressure;Samples;Min_cycle;Max_cycle;Signal;HPM_P1;HPM_P2
2021/04/20 00:02:16;;;;;;;131.27;53.40;;;;;;;5.69;74.69;98331.03;5057684;28;20028;-75
2021/04/20 00:04:41;;;;;;;133.65;55.55;;;;;;;5.67;74.98;98334.03;5054617;28;20029;-75
2021/04/20 00:07:08;;;;;;;119.28;52.50;;;;;;;5.65;74.29;98334.28;5052206;28;20043;-75
2021/04/20 00:09:33;;;;;;;128.10;56.58;;;;;;;5.62;74.47;98325.88;5053198;28;20087;-75
2021/04/20 00:11:59;;;;;;;115.07;51.08;;;;;;;5.58;74.89;98325.56;5053435;28;20025;-75
2021/04/20 00:14:24;;;;;;;120.10;53.72;;;;;;;5.56;74.26;98329.66;5052886;28;20076;-75
2021/04/20 00:16:50;;;;;;;113.60;50.03;;;;;;;5.52;74.19;98332.06;5052030;28;20075;-75
2021/04/20 00:19:15;;;;;;;105.68;47.88;;;;;;;5.48;74.57;98323.63;5053117;28;20424;-75
2021/04/20 00:21:41;;;;;;;111.88;50.50;;;;;;;5.45;74.71;98328.78;5053159;28;20029;-75
2021/04/20 00:24:07;;;;;;;106.97;47.75;;;;;;;5.41;74.00;98325.78;5053496;28;20029;-75
2021/04/20 00:26:33;;;;;;;102.57;45.80;;;;;;;5.38;74.68;98325.50;5053225;28;20025;-75
2021/04/20 00:28:59;;;;;;;102.43;47.00;;;;;;;5.33;74.27;98324.38;5053104;28;20028;-75
2021/04/20 00:31:24;;;;;;;112.18;48.88;;;;;;;5.31;74.19;98326.56;5053571;28;20029;-74
2021/04/20 00:33:49;;;;;;;109.53;49.88;;;;;;;5.28;74.76;98321.63;5051554;28;20543;-75
2021/04/20 00:36:15;;;;;;;106.45;48.33;;;;;;;5.26;74.56;98318.38;5052827;28;20028;-75
2021/04/20 00:38:40;;;;;;;127.80;52.90;;;;;;;5.24;74.37;98323.25;5052980;28;20017;-74
2021/04/20 00:41:08;;;;;;;110.75;48.60;;;;;;;5.22;74.14;98323.53;5051558;28;20515;-75
2021/04/20 00:43:42;;;;;;;123.28;52.35;;;;;;;5.20;74.70;98313.97;5052647;28;20095;-74
2021/04/20 00:46:13;;;;;;;112.20;49.70;;;;;;;5.18;74.63;98314.25;5051547;28;20392;-75
2021/04/20 00:48:39;;;;;;;127.63;52.35;;;;;;;5.15;74.54;98314.78;5049925;28;20416;-75
2021/04/20 00:51:05;;;;;;;111.32;48.45;;;;;;;5.12;74.71;98318.03;5052540;28;20380;-75
2021/04/20 00:53:31;;;;;;;110.85;48.40;;;;;;;5.10;74.74;98313.91;5049215;28;20017;-75
2021/04/20 00:55:56;;;;;;;106.78;47.83;;;;;;;5.06;74.52;98313.63;5051557;28;20032;-75
2021/04/20 00:58:22;;;;;;;102.70;45.38;;;;;;;5.01;74.24;98314.44;5052412;28;20032;-74
2021/04/20 01:00:49;;;;;;;101.85;46.20;;;;;;;5.00;74.04;98312.81;5052013;28;20021;-74
2021/04/20 01:03:15;;;;;;;102.53;45.30;;;;;;;4.98;74.68;98312.25;5052149;28;20099;-75
2021/04/20 01:05:41;;;;;;;101.95;45.20;;;;;;;4.94;74.12;98311.13;5052205;28;20075;-75
2021/04/20 01:08:11;;;;;;;104.30;45.45;;;;;;;4.91;74.24;98312.47;5053382;28;20025;-75
2021/04/20 01:10:48;;;;;;;97.43;45.38;;;;;;;4.88;73.89;98312.19;5049754;28;20083;-75
2021/04/20 01:13:14;;;;;;;97.45;44.78;;;;;;;4.85;74.27;98309.97;5053424;28;20028;-75
2021/04/20 01:15:44;;;;;;;95.72;46.33;;;;;;;4.80;74.75;98299.91;5050876;28;20397;-75
2021/04/20 01:18:11;;;;;;;98.82;46.38;;;;;;;4.80;74.73;98304.50;5083339;28;20025;-75
2021/04/20 01:20:39;;;;;;;104.93;46.97;;;;;;;4.77;73.99;98306.69;5052090;28;20017;-77
2021/04/20 01:23:06;;;;;;;99.70;47.15;;;;;;;4.77;74.68;98308.59;5052271;28;20036;-76
2021/04/20 01:25:32;;;;;;;96.65;44.40;;;;;;;4.74;74.55;98301.75;5052213;28;20021;-76
2021/04/20 01:27:58;;;;;;;90.82;43.95;;;;;;;4.75;74.50;98305.31;5052131;28;20044;-76
2021/04/20 01:30:23;;;;;;;98.22;46.05;;;;;;;4.73;74.98;98312.91;5052176;28;20028;-76
2021/04/20 01:32:48;;;;;;;93.32;43.83;;;;;;;4.70;74.08;98303.38;5051799;28;20024;-77
2021/04/20 01:35:14;;;;;;;93.78;44.53;;;;;;;4.68;73.96;98310.16;5051541;28;20471;-76
2021/04/20 01:37:40;;;;;;;93.80;44.00;;;;;;;4.66;74.59;98305.00;5051615;28;20029;-77
2021/04/20 01:40:07;;;;;;;103.32;46.15;;;;;;;4.67;74.61;98306.63;5051481;28;20027;-77
2021/04/20 01:42:34;;;;;;;96.95;44.85;;;;;;;4.65;74.85;98300.63;5051645;28;20033;-76
2021/04/20 01:44:59;;;;;;;106.13;48.63;;;;;;;4.63;74.16;98300.06;5051550;28;20470;-76
2021/04/20 01:47:24;;;;;;;105.35;49.67;;;;;;;4.60;74.75;98312.25;5051396;28;20036;-75
2021/04/20 01:49:50;;;;;;;104.35;47.92;;;;;;;4.59;74.11;98302.47;5048885;28;20021;-76
2021/04/20 01:52:15;;;;;;;92.68;44.15;;;;;;;4.58;74.77;98306.28;5051278;28;20110;-76
2021/04/20 01:54:41;;;;;;;101.05;45.85;;;;;;;4.59;74.21;98307.91;5051314;28;20390;-76
2021/04/20 01:57:08;;;;;;;107.38;46.92;;;;;;;4.58;74.89;98308.19;5051124;28;20112;-76
2021/04/20 01:59:33;;;;;;;110.63;47.05;;;;;;;4.58;74.63;98309.00;5049764;28;20025;-76
2021/04/20 02:01:59;;;;;;;102.97;45.47;;;;;;;4.59;74.30;98307.91;5051339;28;20036;-76
2021/04/20 02:04:24;;;;;;;98.70;44.78;;;;;;;4.60;74.36;98314.19;5051510;28;20064;-75
2021/04/20 02:06:51;;;;;;;99.07;44.45;;;;;;;4.59;74.22;98307.09;5050922;28;20055;-76
2021/04/20 02:09:17;;;;;;;105.65;47.38;;;;;;;4.58;74.70;98310.91;5051120;28;20056;-76
2021/04/20 02:11:42;;;;;;;103.43;46.60;;;;;;;4.56;74.71;98304.91;5050973;28;20094;-75
2021/04/20 02:14:07;;;;;;;98.47;44.70;;;;;;;4.51;73.89;98308.38;5050957;28;20096;-76
2021/04/20 02:16:34;;;;;;;96.00;44.90;;;;;;;4.46;74.00;98311.91;5050888;28;20456;-76
2021/04/20 02:19:05;;;;;;;103.57;47.25;;;;;;;4.42;74.54;98304.53;5051076;28;20025;-76
2021/04/20 02:21:32;;;;;;;107.25;48.55;;;;;;;4.41;74.12;98309.13;5047064;28;20016;-76
2021/04/20 02:23:58;;;;;;;125.13;55.85;;;;;;;4.37;73.93;98305.31;5049111;28;20470;-76
2021/04/20 02:26:37;;;;;;;121.72;53.83;;;;;;;4.29;74.67;98311.19;5050852;28;20036;-75
2021/04/20 02:29:05;;;;;;;117.93;52.40;;;;;;;4.28;74.11;98313.13;5049117;28;20029;-76
2021/04/20 02:31:34;;;;;;;111.18;51.28;;;;;;;4.27;74.34;98313.38;5049470;28;20468;-76
2021/04/20 02:34:03;;;;;;;105.38;49.47;;;;;;;4.23;74.65;98310.34;5050707;28;20039;-76
2021/04/20 02:36:29;;;;;;;108.43;49.97;;;;;;;4.19;74.09;98313.84;5050642;28;20107;-76
2021/04/20 02:38:55;;;;;;;182.82;73.20;;;;;;;4.16;75.04;98307.03;5048613;28;20036;-76
2021/04/20 02:41:22;;;;;;;102.32;47.35;;;;;;;4.11;74.72;98305.09;5051589;28;20033;-76
2021/04/20 02:43:47;;;;;;;98.35;46.42;;;;;;;4.02;74.67;98306.63;5051581;28;20052;-76
2021/04/20 02:46:15;;;;;;;86.43;42.65;;;;;;;3.95;74.31;98312.28;5051535;28;20053;-76
2021/04/20 02:48:41;;;;;;;92.82;44.58;;;;;;;3.88;74.69;98303.53;5051398;28;20032;-76
2021/04/20 02:51:11;;;;;;;101.00;47.08;;;;;;;3.89;75.10;98302.44;5051414;28;20485;-76
2021/04/20 02:53:37;;;;;;;97.13;46.80;;;;;;;3.89;75.20;98313.28;5051469;28;20021;-75
2021/04/20 02:56:02;;;;;;;94.03;47.20;;;;;;;3.85;74.16;98304.84;5051747;28;20025;-76
2021/04/20 02:58:29;;;;;;;97.25;45.15;;;;;;;3.80;74.98;98310.22;5051494;28;20021;-76
2021/04/20 03:01:20;;;;;;;97.22;45.85;;;;;;;3.77;74.01;98316.16;5051622;28;20024;-76
2021/04/20 03:03:48;;;;;;;93.05;46.33;;;;;;;3.74;74.59;98313.97;5041070;28;20051;-76
2021/04/20 03:06:14;;;;;;;86.38;41.28;;;;;;;3.67;74.77;98305.19;5051469;28;20027;-76
2021/04/20 03:08:42;;;;;;;90.53;41.75;;;;;;;3.62;74.24;98307.84;5051163;28;20385;-76
2021/04/20 03:11:14;;;;;;;85.38;38.58;;;;;;;3.47;73.97;98306.59;5051274;28;20025;-76
2021/04/20 03:13:40;;;;;;;81.70;37.65;;;;;;;3.35;73.75;98308.63;5051349;28;20417;-76
2021/04/20 03:16:06;;;;;;;81.20;36.03;;;;;;;3.23;74.14;98308.78;5051067;28;20114;-76
2021/04/20 03:18:31;;;;;;;82.90;38.67;;;;;;;3.12;74.78;98313.22;5050374;28;20378;-76
2021/04/20 03:20:57;;;;;;;83.28;39.78;;;;;;;2.98;73.86;98320.91;5051085;28;20017;-76
2021/04/20 03:23:23;;;;;;;75.93;36.53;;;;;;;2.83;74.71;98313.38;5051147;28;20028;-76
2021/04/20 03:25:51;;;;;;;82.68;46.78;;;;;;;2.72;74.56;98311.59;5051114;28;20426;-76
2021/04/20 03:28:17;;;;;;;71.05;36.47;;;;;;;2.63;74.41;98303.91;5050979;28;20096;-76
2021/04/20 03:30:43;;;;;;;58.47;29.70;;;;;;;2.55;74.97;98314.31;5051257;28;20029;-76
2021/04/20 03:33:18;;;;;;;54.75;28.63;;;;;;;2.44;74.97;98311.47;5051047;28;20036;-76
2021/04/20 03:35:51;;;;;;;47.47;25.80;;;;;;;2.40;74.99;98317.59;5050954;28;20040;-75
2021/04/20 03:38:28;;;;;;;45.63;26.10;;;;;;;2.32;74.85;98306.09;5050818;28;20032;-75
2021/04/20 03:41:00;;;;;;;57.33;29.80;;;;;;;2.31;75.64;98309.06;5049544;28;20029;-75
2021/04/20 03:43:30;;;;;;;76.10;35.28;;;;;;;2.29;75.34;98303.91;5050809;28;20025;-76
2021/04/20 03:46:01;;;;;;;;;;;;;;;2.27;75.12;98297.09;5051444;28;20446;-76
2021/04/20 03:48:31;;;;;;;;;;;;;;;2.26;75.37;98306.28;5049941;28;19912;-76
2021/04/20 03:51:12;;;;;;;80.88;38.08;;;;;;;2.26;75.58;98304.38;5050909;28;19919;-75
2021/04/20 03:53:40;;;;;;;65.90;32.42;;;;;;;2.28;75.36;98312.28;5049574;28;20021;-75
2021/04/20 03:56:07;;;;;;;61.65;32.92;;;;;;;2.28;75.64;98306.84;5050609;28;20466;-75
2021/04/20 03:58:36;;;;;;;70.43;38.45;;;;;;;2.26;75.49;98304.38;5050831;28;20017;-75
2021/04/20 04:01:04;;;;;;;61.10;33.15;;;;;;;2.26;75.68;98306.28;5050655;28;20032;-75
2021/04/20 04:03:30;;;;;;;48.95;27.35;;;;;;;2.27;76.08;98303.31;5050563;28;20024;-75
2021/04/20 04:05:57;;;;;;;51.95;28.85;;;;;;;2.23;75.90;98311.13;5050659;28;20021;-76
2021/04/20 04:08:22;;;;;;;54.03;28.55;;;;;;;2.20;75.81;98305.41;5050669;28;20032;-75
2021/04/20 04:10:53;;;;;;;70.30;32.88;;;;;;;2.16;75.50;98298.81;5050535;28;20025;-75
2021/04/20 04:13:24;;;;;;;54.65;28.92;;;;;;;2.19;75.66;98301.03;5050519;28;20044;-75
2021/04/20 04:15:55;;;;;;;55.97;27.23;;;;;;;2.19;76.03;98309.97;5050054;28;20049;-76
2021/04/20 04:18:23;;;;;;;51.67;25.65;;;;;;;2.25;76.33;98318.16;5050403;28;20036;-75
2021/04/20 04:20:49;;;;;;;45.83;24.42;;;;;;;2.30;76.15;98319.06;5050631;28;20036;-76
2021/04/20 04:23:19;;;;;;;45.00;24.35;;;;;;;2.40;76.71;98312.19;5049258;28;20460;-75
2021/04/20 04:26:10;;;;;;;46.85;25.00;;;;;;;2.42;76.07;98313.59;5049306;28;20031;-75
2021/04/20 04:28:38;;;;;;;43.55;24.48;;;;;;;2.37;76.27;98314.31;5048517;28;20063;-75
2021/04/20 04:31:05;;;;;;;50.03;26.23;;;;;;;2.33;76.83;98324.00;5050727;28;20017;-76
2021/04/20 04:33:34;;;;;;;51.55;26.98;;;;;;;2.36;77.12;98326.22;5050381;28;20025;-75
2021/04/20 04:36:00;;;;;;;50.03;28.15;;;;;;;2.40;77.25;98321.13;5053767;28;20028;-75
2021/04/20 04:38:26;;;;;;;49.42;27.00;;;;;;;2.53;77.45;98322.69;5052993;28;20025;-75
2021/04/20 04:40:51;;;;;;;55.90;27.63;;;;;;;2.67;77.86;98326.69;5053991;28;20040;-75
2021/04/20 04:43:17;;;;;;;46.17;25.58;;;;;;;2.80;77.95;98333.66;5053176;28;20029;-75
2021/04/20 04:45:43;;;;;;;77.43;31.02;;;;;;;2.88;77.55;98339.72;5053690;28;20073;-75
2021/04/20 04:48:12;;;;;;;59.42;27.95;;;;;;;2.96;77.49;98342.84;5053923;28;20032;-75
2021/04/20 04:50:40;;;;;;;59.65;29.75;;;;;;;2.98;78.25;98346.13;5053813;28;20021;-75
2021/04/20 04:53:07;;;;;;;68.72;30.67;;;;;;;3.00;77.94;98339.63;5053522;28;20025;-75
2021/04/20 04:55:32;;;;;;;72.88;30.45;;;;;;;3.04;77.84;98340.78;5056248;28;20028;-76
2021/04/20 04:57:59;;;;;;;69.30;28.27;;;;;;;3.09;78.40;98338.09;5053626;28;20033;-75
2021/04/20 05:00:25;;;;;;;61.90;27.90;;;;;;;3.13;78.38;98345.50;5053433;28;20031;-75
2021/04/20 05:02:51;;;;;;;73.97;31.13;;;;;;;3.17;78.53;98340.38;5056131;28;20031;-75
2021/04/20 05:05:18;;;;;;;64.35;28.13;;;;;;;3.23;78.91;98333.97;5054804;28;20037;-75
2021/04/20 05:07:44;;;;;;;105.25;36.05;;;;;;;3.25;78.67;98345.38;5054942;28;20568;-76
2021/04/20 05:10:13;;;;;;;70.43;30.60;;;;;;;3.28;78.88;98335.91;5060199;28;20382;-75
2021/04/20 05:12:39;;;;;;;64.10;26.45;;;;;;;3.34;79.01;98334.91;5104951;28;20035;-75
2021/04/20 05:15:05;;;;;;;59.45;27.02;;;;;;;3.43;79.39;98338.03;5074736;28;20046;-75
2021/04/20 05:17:31;;;;;;;56.17;25.70;;;;;;;3.48;79.35;98329.94;5074934;28;20037;-76
2021/04/20 05:19:57;;;;;;;49.22;24.52;;;;;;;3.59;79.56;98336.31;5073769;28;20396;-75
2021/04/20 05:22:22;;;;;;;57.85;25.83;;;;;;;3.71;80.18;98336.16;5054284;28;20048;-76
2021/04/20 05:24:47;;;;;;;63.42;27.33;;;;;;;3.79;79.73;98335.72;5054861;28;20032;-76
2021/04/20 05:27:13;;;;;;;71.32;29.52;;;;;;;3.88;80.35;98328.75;5054449;28;20029;-76
2021/04/20 05:29:40;;;;;;;66.25;29.75;;;;;;;3.97;79.31;98329.13;5054650;28;20531;-75
2021/04/20 05:32:07;;;;;;;78.45;32.28;;;;;;;3.99;79.54;98337.00;5063186;28;20021;-75
2021/04/20 05:34:33;;;;;;;54.70;26.67;;;;;;;4.10;79.76;98346.88;5054260;28;20432;-76
2021/04/20 05:36:58;;;;;;;54.75;27.55;;;;;;;4.19;80.55;98344.50;5054463;28;20029;-75
2021/04/20 05:39:24;;;;;;;68.90;31.67;;;;;;;4.30;80.60;98335.41;5055346;28;20462;-75
2021/04/20 05:41:49;;;;;;;59.00;30.52;;;;;;;4.37;80.26;98335.16;5071239;28;20028;-76
2021/04/20 05:44:15;;;;;;;70.00;32.38;;;;;;;4.44;80.50;98335.78;5074327;28;20036;-75
2021/04/20 05:46:42;;;;;;;73.13;32.28;;;;;;;4.54;80.30;98345.91;5073432;28;20465;-77
2021/04/20 05:49:08;;;;;;;63.05;29.50;;;;;;;4.62;80.18;98353.56;5073265;28;20029;-76
2021/04/20 05:51:35;;;;;;;59.55;28.88;;;;;;;4.70;80.65;98346.03;5069120;28;20040;-76
2021/04/20 05:54:01;;;;;;;56.70;28.10;;;;;;;4.76;81.07;98345.00;5074037;28;20105;-75
2021/04/20 05:56:27;;;;;;;64.15;28.08;;;;;;;4.80;81.01;98343.38;5074124;28;20029;-75
2021/04/20 05:58:53;;;;;;;71.50;31.45;;;;;;;4.88;81.07;98333.91;5073826;28;20048;-75
2021/04/20 06:01:19;;;;;;;66.30;31.23;;;;;;;4.96;81.12;98341.59;5055549;28;20035;-75
2021/04/20 06:03:46;;;;;;;62.80;32.42;;;;;;;5.02;81.04;98340.53;5054732;28;20389;-75
2021/04/20 06:06:18;;;;;;;73.20;31.85;;;;;;;5.08;80.96;98338.66;5053443;28;20125;-75
2021/04/20 06:08:44;;;;;;;68.75;31.98;;;;;;;5.14;80.85;98337.63;5055933;28;20090;-75
2021/04/20 06:11:10;;;;;;;71.90;32.03;;;;;;;5.27;81.08;98344.47;5058235;28;20029;-76
2021/04/20 06:13:36;;;;;;;66.65;30.00;;;;;;;5.31;80.43;98336.59;5056045;28;20040;-73
2021/04/20 06:16:02;;;;;;;75.43;35.00;;;;;;;5.39;80.89;98340.72;5072301;28;20036;-74
2021/04/20 06:18:29;;;;;;;76.20;33.55;;;;;;;5.41;80.66;98344.00;5059899;28;20099;-72
2021/04/20 06:20:56;;;;;;;80.03;35.08;;;;;;;5.41;80.39;98344.00;5064682;28;20032;-74
2021/04/20 06:23:23;;;;;;;69.72;33.10;;;;;;;5.46;80.26;98349.47;5073095;28;20074;-74
2021/04/20 06:25:50;;;;;;;70.32;31.70;;;;;;;5.53;80.37;98335.63;5067310;28;20422;-74
2021/04/20 06:28:15;;;;;;;69.28;32.35;;;;;;;5.61;80.87;98338.63;5053200;28;20032;-73
2021/04/20 06:30:42;;;;;;;66.97;31.80;;;;;;;5.75;80.75;98344.38;5053097;28;20021;-73
2021/04/20 06:33:08;;;;;;;70.18;30.52;;;;;;;5.84;81.17;98336.53;5053265;28;20025;-74
2021/04/20 06:35:34;;;;;;;71.05;33.83;;;;;;;5.93;80.65;98337.63;5062061;28;20056;-73
2021/04/20 06:38:01;;;;;;;72.63;32.83;;;;;;;6.02;80.69;98329.81;5080482;28;20024;-74
2021/04/20 06:40:33;;;;;;;72.53;33.58;;;;;;;6.10;80.38;98331.16;5072911;28;20081;-73
2021/04/20 06:43:03;;;;;;;75.05;34.85;;;;;;;6.16;80.46;98331.97;5073069;28;20021;-73
2021/04/20 06:45:43;;;;;;;64.07;30.85;;;;;;;6.24;80.20;98336.91;5057749;28;20021;-73
2021/04/20 06:48:19;;;;;;;62.42;30.38;;;;;;;6.25;80.10;98344.81;5056830;28;20111;-74
2021/04/20 06:50:47;;;;;;;65.28;31.17;;;;;;;6.34;80.01;98341.53;5063841;28;20433;-72
2021/04/20 06:53:24;;;;;;;65.72;33.00;;;;;;;6.34;80.42;98336.91;5052487;28;20082;-73
2021/04/20 06:56:08;;;;;;;66.30;31.98;;;;;;;6.51;80.27;98344.03;5052418;28;20373;-74
2021/04/20 06:58:47;;;;;;;62.85;29.67;;;;;;;6.67;80.69;98339.38;5066083;28;20074;-73
2021/04/20 07:01:35;;;;;;;68.93;31.27;;;;;;;6.79;80.28;98336.38;5070722;28;20540;-73
2021/04/20 07:04:33;;;;;;;62.90;30.15;;;;;;;6.88;79.85;98345.63;5052012;28;20401;-72
2021/04/20 07:07:23;;;;;;;66.45;31.67;;;;;;;6.87;80.16;98341.28;5047384;28;20501;-73
2021/04/20 07:09:58;;;;;;;67.90;31.55;;;;;;;6.90;79.55;98348.06;5049736;28;20021;-73
2021/04/20 07:12:25;;;;;;;60.70;30.42;;;;;;;6.97;79.75;98345.88;5043571;28;20044;-73
2021/04/20 07:14:54;;;;;;;61.55;31.25;;;;;;;6.94;79.94;98347.25;5052614;28;20090;-73
2021/04/20 07:17:35;;;;;;;69.90;34.10;;;;;;;7.04;80.25;98348.31;5063662;28;20048;-73
2021/04/20 07:20:28;;;;;;;68.30;31.73;;;;;;;7.13;79.52;98344.75;5069011;28;20093;-73
2021/04/20 07:23:12;;;;;;;71.70;35.05;;;;;;;7.27;79.86;98355.09;5070959;28;20028;-73
2021/04/20 07:25:57;;;;;;;65.85;32.88;;;;;;;7.42;79.48;98338.69;5072366;28;20032;-73
2021/04/20 07:29:27;;;;;;;70.18;34.63;;;;;;;7.55;79.31;98347.34;5072210;28;20029;-73
2021/04/20 07:32:29;;;;;;;73.65;36.47;;;;;;;7.71;79.43;98346.19;5003272;28;20042;-73
2021/04/20 07:35:16;;;;;;;74.32;34.30;;;;;;;7.85;79.68;98345.59;5010330;28;20049;-74
2021/04/20 07:38:18;;;;;;;71.18;35.47;;;;;;;7.88;78.51;98345.84;5059292;28;20113;-72
2021/04/20 07:40:44;;;;;;;63.22;30.50;;;;;;;8.01;79.25;98340.88;5070211;28;20048;-72
2021/04/20 07:43:28;;;;;;;74.20;36.33;;;;;;;8.11;78.47;98342.72;5071102;28;20036;-73
2021/04/20 07:46:02;;;;;;;66.13;33.53;;;;;;;8.27;78.77;98344.25;5072035;28;20037;-73
2021/04/20 07:48:49;;;;;;;61.95;32.50;;;;;;;8.40;78.15;98342.78;5072502;28;20032;-73
2021/04/20 07:51:20;;;;;;;67.82;35.15;;;;;;;8.47;78.50;98340.56;5072409;28;20036;-73
2021/04/20 07:53:51;;;;;;;65.57;34.67;;;;;;;8.56;78.00;98338.03;5072152;28;20052;-73
2021/04/20 07:56:24;;;;;;;71.97;37.20;;;;;;;8.68;78.09;98337.66;5071946;28;20107;-73
2021/04/20 07:58:51;;;;;;;77.32;37.83;;;;;;;8.81;77.92;98340.84;5072215;28;20112;-74
2021/04/20 08:01:41;;;;;;;73.28;36.15;;;;;;;8.87;77.74;98353.38;5072179;28;20032;-73
2021/04/20 08:04:14;;;;;;;;;;;;;;;8.96;77.19;98345.34;5065261;28;20041;-73
2021/04/20 08:06:44;;;;;;;69.45;35.88;;;;;;;9.05;77.11;98343.63;5072133;28;19912;-73
2021/04/20 08:09:13;;;;;;;62.92;31.60;;;;;;;9.13;77.52;98342.16;5074191;28;20055;-73
2021/04/20 08:11:57;;;;;;;63.70;35.22;;;;;;;9.19;77.03;98341.81;5075951;28;20469;-73
2021/04/20 08:14:27;;;;;;;60.28;33.40;;;;;;;9.24;76.81;98338.22;5075678;28;20068;-73
2021/04/20 08:17:21;;;;;;;67.30;36.75;;;;;;;9.36;77.20;98337.81;5075879;28;20124;-74
2021/04/20 08:19:52;;;;;;;61.83;34.67;;;;;;;9.44;76.90;98339.09;5059693;28;20041;-73
2021/04/20 08:22:18;;;;;;;72.05;37.33;;;;;;;9.49;76.41;98337.13;5075642;28;20035;-73
2021/04/20 08:24:53;;;;;;;76.03;39.85;;;;;;;9.50;76.44;98340.66;5070584;28;20440;-74
2021/04/20 08:27:55;;;;;;;65.85;35.13;;;;;;;9.44;75.35;98337.19;5055196;28;20366;-74
2021/04/20 08:30:35;;;;;;;68.22;36.28;;;;;;;9.41;76.20;98336.94;5055390;28;20025;-71
2021/04/20 08:33:08;;;;;;;67.35;36.13;;;;;;;9.34;75.46;98337.28;5055537;28;20032;-71
2021/04/20 08:35:34;;;;;;;69.35;37.95;;;;;;;9.34;75.58;98329.91;5055160;28;20024;-74
2021/04/20 08:38:20;;;;;;;70.10;38.40;;;;;;;9.44;75.35;98325.41;5055414;28;20028;-74
2021/04/20 08:41:07;;;;;;;76.80;40.30;;;;;;;9.51;75.53;98340.38;5044649;28;20077;-74
2021/04/20 08:43:37;;;;;;;67.13;37.70;;;;;;;9.62;74.64;98332.84;5055500;28;20033;-75
2021/04/20 08:46:17;;;;;;;65.80;37.53;;;;;;;9.75;74.86;98333.25;5055640;28;20528;-74
2021/04/20 08:49:01;;;;;;;77.13;45.92;;;;;;;9.90;75.58;98330.31;5055327;28;20111;-75
2021/04/20 08:51:38;;;;;;;66.78;35.42;;;;;;;10.06;75.46;98317.19;5055251;28;20028;-74
2021/04/20 08:54:25;;;;;;;67.72;37.28;;;;;;;10.11;74.50;98325.34;5053735;28;20045;-75
2021/04/20 08:57:07;;;;;;;60.55;34.03;;;;;;;10.16;74.92;98323.66;5054749;28;20557;-74
2021/04/20 08:59:54;;;;;;;64.25;35.40;;;;;;;10.23;74.81;98329.56;5054420;28;20036;-74
2021/04/20 09:02:32;;;;;;;63.67;34.78;;;;;;;10.25;74.19;98322.66;5054281;28;20037;-74
2021/04/20 09:05:11;;;;;;;56.38;31.23;;;;;;;10.26;73.80;98323.50;5054668;28;20029;-74
2021/04/20 09:08:04;;;;;;;62.83;34.50;;;;;;;10.33;74.05;98317.63;5052877;28;20021;-72
2021/04/20 09:10:47;;;;;;;58.42;32.95;;;;;;;10.38;73.77;98318.38;5051435;28;20040;-74
2021/04/20 09:13:19;;;;;;;58.58;32.15;;;;;;;10.46;73.76;98319.66;5052261;28;20397;-73
2021/04/20 09:15:49;;;;;;;57.38;32.60;;;;;;;10.49;73.80;98308.09;5054247;28;20486;-73
2021/04/20 09:18:29;;;;;;;64.82;34.33;;;;;;;10.56;73.03;98322.25;5054400;28;20040;-73
2021/04/20 09:21:02;;;;;;;;;;;;;;;10.67;72.72;98311.06;5054332;28;20031;-73
2021/04/20 09:24:03;;;;;;;54.13;30.60;;;;;;;10.76;72.40;98309.28;5054441;28;20017;-73
2021/04/20 09:26:35;;;;;;;47.25;27.88;;;;;;;10.92;72.02;98307.06;4989904;28;20096;-72
2021/04/20 09:29:08;;;;;;;46.63;27.20;;;;;;;11.04;72.85;98308.53;5042235;28;20588;-73
2021/04/20 09:31:40;;;;;;;52.13;28.63;;;;;;;11.18;71.27;98309.34;5052894;28;20024;-73
2021/04/20 09:34:09;;;;;;;46.90;25.08;;;;;;;11.26;71.56;98302.34;5053953;28;20021;-73
2021/04/20 09:36:38;;;;;;;51.15;29.42;;;;;;;11.38;71.50;98301.81;5053398;28;20071;-73
2021/04/20 09:39:05;;;;;;;48.60;26.23;;;;;;;11.54;69.67;98299.56;5053115;28;20017;-73
2021/04/20 09:41:44;;;;;;;47.75;26.73;;;;;;;11.72;69.28;98300.56;5053760;28;20504;-73
2021/04/20 09:44:27;;;;;;;42.05;23.55;;;;;;;11.85;69.46;98304.41;5052775;28;20147;-73
2021/04/20 09:46:53;;;;;;;36.25;20.58;;;;;;;11.90;69.46;98294.13;5053749;28;20056;-74
2021/04/20 09:49:21;;;;;;;43.22;21.35;;;;;;;11.96;69.01;98286.56;5053977;28;20068;-73
2021/04/20 09:51:58;;;;;;;36.45;20.10;;;;;;;12.02;68.06;98290.88;5053933;28;20052;-74
2021/04/20 09:54:38;;;;;;;33.88;20.75;;;;;;;12.16;67.84;98288.06;5053818;28;20021;-74
2021/04/20 09:57:07;;;;;;;35.20;20.10;;;;;;;12.29;67.49;98289.13;5053861;28;20029;-74
2021/04/20 09:59:42;;;;;;;30.52;18.25;;;;;;;12.31;66.32;98278.63;5053883;28;20029;-74
2021/04/20 10:02:29;;;;;;;45.67;23.73;;;;;;;12.47;66.14;98279.06;5053950;28;20090;-74
2021/04/20 10:05:04;;;;;;;35.08;20.25;;;;;;;12.70;65.41;98273.56;5053879;28;20574;-73
2021/04/20 10:07:40;;;;;;;45.47;22.90;;;;;;;12.93;66.43;98273.50;5053757;28;20029;-72
2021/04/20 10:10:14;;;;;;;28.65;16.20;;;;;;;13.15;64.90;98275.38;5053817;28;20025;-72
2021/04/20 10:13:12;;;;;;;27.83;17.02;;;;;;;13.22;61.01;98269.44;5053671;28;20568;-73
2021/04/20 10:15:49;;;;;;;30.85;18.70;;;;;;;13.31;61.73;98266.72;5053277;28;20382;-73
2021/04/20 10:18:24;;;;;;;29.02;17.15;;;;;;;13.43;61.34;98266.94;5052198;28;20385;-72
2021/04/20 10:20:55;;;;;;;31.75;18.88;;;;;;;13.58;60.97;98262.94;5052268;28;20075;-74
2021/04/20 10:23:50;;;;;;;34.97;21.02;;;;;;;13.68;58.63;98262.59;5053629;28;20021;-73
2021/04/20 10:26:27;;;;;;;34.38;20.10;;;;;;;13.65;56.86;98277.03;5053332;28;20035;-73
2021/04/20 10:28:59;;;;;;;33.13;18.30;;;;;;;13.63;58.35;98262.78;5053354;28;20032;-74
2021/04/20 10:31:38;;;;;;;28.13;17.27;;;;;;;13.62;58.24;98266.66;5051462;28;20086;-75
2021/04/20 10:34:07;;;;;;;28.20;16.70;;;;;;;13.65;57.40;98262.44;5052847;28;20035;-75
2021/04/20 10:36:34;;;;;;;28.08;17.42;;;;;;;13.68;58.21;98272.81;5053232;28;20036;-74
2021/04/20 10:39:07;;;;;;;27.13;14.85;;;;;;;13.71;58.04;98258.41;5051892;28;20028;-74
2021/04/20 10:41:33;;;;;;;24.38;15.18;;;;;;;13.76;57.52;98263.75;5053184;28;20029;-74
2021/04/20 10:44:00;;;;;;;24.63;14.75;;;;;;;13.86;56.45;98259.09;5052958;28;20025;-76
2021/04/20 10:46:28;;;;;;;18.85;13.15;;;;;;;13.98;57.04;98251.78;5052860;28;20071;-76
2021/04/20 10:48:56;;;;;;;32.15;19.85;;;;;;;14.17;57.72;98253.38;5052563;28;20032;-75
2021/04/20 10:51:35;;;;;;;32.08;18.67;;;;;;;14.32;57.49;98249.31;5051840;28;20053;-75
2021/04/20 10:54:02;;;;;;;22.02;12.65;;;;;;;14.39;54.58;98244.13;5032514;28;20029;-75
2021/04/20 10:56:30;;;;;;;20.55;12.65;;;;;;;14.42;53.39;98234.41;5032471;28;20390;-75
2021/04/20 10:58:58;;;;;;;22.05;14.48;;;;;;;14.53;52.83;98234.84;5032524;28;20104;-75
2021/04/20 11:01:28;;;;;;;20.90;13.43;;;;;;;14.57;53.64;98228.34;5032674;28;20030;-75
2021/04/20 11:03:57;;;;;;;35.38;20.25;;;;;;;14.76;54.23;98229.94;5032666;28;20029;-75
2021/04/20 11:06:41;;;;;;;19.15;12.40;;;;;;;14.89;54.82;98220.63;5032787;28;20033;-75
2021/04/20 11:09:07;;;;;;;15.15;10.00;;;;;;;15.02;53.77;98221.56;5032752;28;20111;-76
2021/04/20 11:11:32;;;;;;;21.25;12.93;;;;;;;15.00;53.43;98217.50;5032624;28;20108;-75
2021/04/20 11:13:57;;;;;;;28.50;15.02;;;;;;;14.97;52.87;98219.00;5032492;28;20021;-76
2021/04/20 11:16:34;;;;;;;19.00;11.48;;;;;;;14.95;53.46;98213.00;5032448;28;20052;-75
2021/04/20 11:19:11;;;;;;;18.23;11.60;;;;;;;15.00;53.79;98214.75;5032695;28;20029;-75
2021/04/20 11:21:41;;;;;;;22.60;13.40;;;;;;;14.94;52.59;98216.88;5032715;28;20104;-75
2021/04/20 11:24:25;;;;;;;33.63;19.88;;;;;;;14.78;52.92;98227.69;5032512;28;20029;-75
2021/04/20 11:26:56;;;;;;;18.17;12.27;;;;;;;14.49;52.14;98228.38;5032607;28;20351;-75
2021/04/20 11:29:28;;;;;;;23.08;13.18;;;;;;;13.97;51.47;98239.13;5032392;28;20033;-75
2021/04/20 11:31:56;;;;;;;36.17;24.48;;;;;;;13.55;53.17;98227.75;5032193;28;20021;-75
2021/04/20 11:34:26;;;;;;;27.38;19.83;;;;;;;13.14;54.05;98237.97;5032449;28;20425;-74
2021/04/20 11:36:56;;;;;;;56.03;29.92;;;;;;;12.85;54.72;98235.75;5030795;28;20036;-75
2021/04/20 11:39:29;;;;;;;42.72;24.13;;;;;;;12.68;56.13;98240.06;5032361;28;20025;-75
2021/04/20 11:42:01;;;;;;;29.25;16.42;;;;;;;12.63;56.37;98251.19;5032210;28;20025;-74